sensor_id;sensor_type;location;lat;lon;timestamp;P1;durP1;ratioP1;P2;durP2;ratioP2
28170;SDS011;15458;53.346;-1.688;2022-12-18T00:00:46;26.35;;;10.20;;
28170;SDS011;15458;53.346;-1.688;2022-12-18T00:03:13;22.92;;;10.13;;
28170;SDS011;15458;53.346;-1.688;2022-12-18T00:05:49;22.77;;;10.23;;
28170;SDS011;15458;53.346;-1.688;2022-12-18T00:08:15;19.58;;;9.13;;
28170;SDS011;15458;53.346;-1.688;2022-12-18T00:10:42;20.20;;;9.57;;
28170;SDS011;15458;53.346;-1.688;2022-12-18T00:13:08;21.08;;;9.25;;
28170;SDS011;15458;53.346;-1.688;2022-12-18T00:15:35;21.73;;;9.25;;
28170;SDS011;15458;53.346;-1.688;2022-12-18T00:18:01;24.20;;;9.02;;
28170;SDS011;15458;53.346;-1.688;2022-12-18T00:20:30;20.20;;;8.48;;
28170;SDS011;15458;53.346;-1.688;2022-12-18T00:23:00;22.13;;;8.73;;
28170;SDS011;15458;53.346;-1.688;2022-12-18T00:25:26;17.70;;;8.48;;
28170;SDS011;15458;53.346;-1.688;2022-12-18T00:27:51;15.05;;;7.95;;
28170;SDS011;15458;53.346;-1.688;2022-12-18T00:30:17;20.25;;;9.20;;
28170;SDS011;15458;53.346;-1.688;2022-12-18T00:32:43;20.02;;;9.85;;
28170;SDS011;15458;53.346;-1.688;2022-12-18T00:35:09;20.77;;;7.88;;
28170;SDS011;15458;53.346;-1.688;2022-12-18T00:37:34;15.73;;;7.18;;
28170;SDS011;15458;53.346;-1.688;2022-12-18T00:40:00;16.10;;;8.05;;
28170;SDS011;15458;53.346;-1.688;2022-12-18T00:42:26;15.52;;;7.20;;
28170;SDS011;15458;53.346;-1.688;2022-12-18T00:45:10;21.02;;;7.57;;
28170;SDS011;15458;53.346;-1.688;2022-12-18T00:47:36;18.13;;;6.95;;
28170;SDS011;15458;53.346;-1.688;2022-12-18T00:50:02;13.90;;;6.80;;
28170;SDS011;15458;53.346;-1.688;2022-12-18T00:52:28;9.68;;;6.43;;
28170;SDS011;15458;53.346;-1.688;2022-12-18T00:54:53;16.10;;;7.40;;
28170;SDS011;15458;53.346;-1.688;2022-12-18T00:57:19;15.20;;;6.93;;
28170;SDS011;15458;53.346;-1.688;2022-12-18T00:59:45;14.50;;;7.10;;
28170;SDS011;15458;53.346;-1.688;2022-12-18T01:02:13;13.80;;;7.60;;
28170;SDS011;15458;53.346;-1.688;2022-12-18T01:04:39;15.88;;;7.22;;
28170;SDS011;15458;53.346;-1.688;2022-12-18T01:07:05;16.05;;;7.68;;
28170;SDS011;15458;53.346;-1.688;2022-12-18T01:09:30;17.42;;;7.55;;
28170;SDS011;15458;53.346;-1.688;2022-12-18T01:11:56;12.07;;;6.88;;
28170;SDS011;15458;53.346;-1.688;2022-12-18T01:14:22;11.80;;;6.32;;
28170;SDS011;15458;53.346;-1.688;2022-12-18T01:16:48;11.48;;;6.47;;
28170;SDS011;15458;53.346;-1.688;2022-12-18T01:19:13;13.10;;;6.95;;
28170;SDS011;15458;53.346;-1.688;2022-12-18T01:21:39;12.68;;;6.60;;
28170;SDS011;15458;53.346;-1.688;2022-12-18T01:24:05;15.73;;;7.40;;
28170;SDS011;15458;53.346;-1.688;2022-12-18T01:26:30;15.05;;;6.30;;
28170;SDS011;15458;53.346;-1.688;2022-12-18T01:28:56;14.30;;;7.30;;
28170;SDS011;15458;53.346;-1.688;2022-12-18T01:31:23;12.52;;;5.72;;
28170;SDS011;15458;53.346;-1.688;2022-12-18T01:36:29;13.02;;;5.80;;
28170;SDS011;15458;53.346;-1.688;2022-12-18T01:38:58;14.00;;;6.60;;
28170;SDS011;15458;53.346;-1.688;2022-12-18T01:41:26;12.35;;;7.35;;
28170;SDS011;15458;53.346;-1.688;2022-12-18T01:47:20;11.82;;;6.05;;
28170;SDS011;15458;53.346;-1.688;2022-12-18T01:49:49;11.70;;;6.63;;
28170;SDS011;15458;53.346;-1.688;2022-12-18T01:52:15;12.38;;;6.13;;
28170;SDS011;15458;53.346;-1.688;2022-12-18T01:54:42;9.02;;;5.68;;
28170;SDS011;15458;53.346;-1.688;2022-12-18T01:57:08;16.75;;;7.88;;
28170;SDS011;15458;53.346;-1.688;2022-12-18T01:59:34;9.40;;;5.95;;
28170;SDS011;15458;53.346;-1.688;2022-12-18T02:02:01;12.35;;;6.18;;
28170;SDS011;15458;53.346;-1.688;2022-12-18T02:04:28;20.33;;;7.60;;
28170;SDS011;15458;53.346;-1.688;2022-12-18T02:07:06;14.82;;;6.40;;
28170;SDS011;15458;53.346;-1.688;2022-12-18T02:10:02;14.40;;;7.20;;
28170;SDS011;15458;53.346;-1.688;2022-12-18T02:13:13;12.77;;;6.72;;
28170;SDS011;15458;53.346;-1.688;2022-12-18T02:18:45;9.52;;;6.30;;
28170;SDS011;15458;53.346;-1.688;2022-12-18T02:24:04;9.55;;;5.32;;
28170;SDS011;15458;53.346;-1.688;2022-12-18T02:26:37;12.80;;;7.63;;
28170;SDS011;15458;53.346;-1.688;2022-12-18T02:29:56;14.75;;;8.05;;
28170;SDS011;15458;53.346;-1.688;2022-12-18T02:32:00;11.55;;;6.45;;
28170;SDS011;15458;53.346;-1.688;2022-12-18T02:34:31;13.32;;;7.75;;
28170;SDS011;15458;53.346;-1.688;2022-12-18T02:37:02;15.65;;;6.75;;
28170;SDS011;15458;53.346;-1.688;2022-12-18T02:39:30;13.60;;;7.07;;
28170;SDS011;15458;53.346;-1.688;2022-12-18T02:41:59;11.25;;;6.78;;
28170;SDS011;15458;53.346;-1.688;2022-12-18T02:44:32;11.05;;;6.40;;
28170;SDS011;15458;53.346;-1.688;2022-12-18T02:46:58;11.75;;;6.70;;
28170;SDS011;15458;53.346;-1.688;2022-12-18T02:49:44;17.40;;;7.53;;
28170;SDS011;15458;53.346;-1.688;2022-12-18T03:00:18;19.20;;;7.03;;
28170;SDS011;15458;53.346;-1.688;2022-12-18T03:03:11;11.45;;;6.57;;
28170;SDS011;15458;53.346;-1.688;2022-12-18T03:05:42;15.02;;;6.38;;
28170;SDS011;15458;53.346;-1.688;2022-12-18T03:08:11;11.52;;;6.75;;
28170;SDS011;15458;53.346;-1.688;2022-12-18T03:10:42;19.65;;;9.43;;
28170;SDS011;15458;53.346;-1.688;2022-12-18T03:13:16;20.25;;;9.07;;
28170;SDS011;15458;53.346;-1.688;2022-12-18T03:15:58;18.65;;;7.55;;
28170;SDS011;15458;53.346;-1.688;2022-12-18T03:18:28;19.20;;;8.50;;
28170;SDS011;15458;53.346;-1.688;2022-12-18T03:21:00;21.90;;;9.57;;
28170;SDS011;15458;53.346;-1.688;2022-12-18T03:23:32;15.73;;;8.38;;
28170;SDS011;15458;53.346;-1.688;2022-12-18T03:26:05;22.42;;;9.60;;
28170;SDS011;15458;53.346;-1.688;2022-12-18T03:28:35;23.40;;;9.68;;
28170;SDS011;15458;53.346;-1.688;2022-12-18T03:31:05;18.65;;;9.85;;
28170;SDS011;15458;53.346;-1.688;2022-12-18T03:33:37;22.63;;;10.57;;
28170;SDS011;15458;53.346;-1.688;2022-12-18T03:36:07;16.98;;;8.15;;
28170;SDS011;15458;53.346;-1.688;2022-12-18T03:38:33;16.60;;;8.60;;
28170;SDS011;15458;53.346;-1.688;2022-12-18T03:41:22;22.40;;;10.20;;
28170;SDS011;15458;53.346;-1.688;2022-12-18T03:52:03;24.45;;;11.43;;
28170;SDS011;15458;53.346;-1.688;2022-12-18T03:54:39;21.23;;;9.10;;
28170;SDS011;15458;53.346;-1.688;2022-12-18T03:57:09;21.13;;;10.55;;
28170;SDS011;15458;53.346;-1.688;2022-12-18T03:59:43;25.15;;;12.55;;
28170;SDS011;15458;53.346;-1.688;2022-12-18T04:02:12;28.48;;;13.45;;
28170;SDS011;15458;53.346;-1.688;2022-12-18T04:04:39;24.80;;;12.95;;
28170;SDS011;15458;53.346;-1.688;2022-12-18T04:07:07;22.98;;;10.88;;
28170;SDS011;15458;53.346;-1.688;2022-12-18T04:09:34;22.52;;;11.77;;
28170;SDS011;15458;53.346;-1.688;2022-12-18T04:12:01;23.60;;;12.18;;
28170;SDS011;15458;53.346;-1.688;2022-12-18T04:14:26;25.05;;;12.20;;
28170;SDS011;15458;53.346;-1.688;2022-12-18T04:16:52;24.23;;;12.05;;
28170;SDS011;15458;53.346;-1.688;2022-12-18T04:19:17;18.73;;;9.27;;
28170;SDS011;15458;53.346;-1.688;2022-12-18T04:21:43;27.40;;;12.90;;
28170;SDS011;15458;53.346;-1.688;2022-12-18T04:24:09;27.33;;;13.15;;
28170;SDS011;15458;53.346;-1.688;2022-12-18T04:26:34;21.67;;;9.35;;
28170;SDS011;15458;53.346;-1.688;2022-12-18T04:29:00;27.55;;;12.15;;
28170;SDS011;15458;53.346;-1.688;2022-12-18T04:31:26;25.35;;;12.95;;
28170;SDS011;15458;53.346;-1.688;2022-12-18T04:33:52;24.52;;;11.82;;
28170;SDS011;15458;53.346;-1.688;2022-12-18T04:36:18;25.75;;;12.02;;
28170;SDS011;15458;53.346;-1.688;2022-12-18T04:38:44;22.25;;;10.98;;
28170;SDS011;15458;53.346;-1.688;2022-12-18T04:41:09;34.13;;;14.07;;
28170;SDS011;15458;53.346;-1.688;2022-12-18T04:43:35;33.90;;;14.10;;
28170;SDS011;15458;53.346;-1.688;2022-12-18T04:46:04;32.78;;;14.65;;
28170;SDS011;15458;53.346;-1.688;2022-12-18T04:48:32;31.77;;;14.70;;
28170;SDS011;15458;53.346;-1.688;2022-12-18T04:50:58;37.33;;;15.00;;
28170;SDS011;15458;53.346;-1.688;2022-12-18T04:53:24;35.15;;;15.40;;
28170;SDS011;15458;53.346;-1.688;2022-12-18T04:55:50;41.45;;;15.65;;
28170;SDS011;15458;53.346;-1.688;2022-12-18T04:58:15;38.60;;;15.50;;
28170;SDS011;15458;53.346;-1.688;2022-12-18T05:00:41;41.50;;;17.40;;
28170;SDS011;15458;53.346;-1.688;2022-12-18T05:03:07;39.40;;;16.52;;
28170;SDS011;15458;53.346;-1.688;2022-12-18T05:05:34;37.67;;;17.05;;
28170;SDS011;15458;53.346;-1.688;2022-12-18T05:08:00;40.58;;;16.20;;
28170;SDS011;15458;53.346;-1.688;2022-12-18T05:10:26;40.83;;;17.23;;
28170;SDS011;15458;53.346;-1.688;2022-12-18T05:12:51;42.33;;;17.20;;
28170;SDS011;15458;53.346;-1.688;2022-12-18T05:15:23;42.53;;;17.45;;
28170;SDS011;15458;53.346;-1.688;2022-12-18T05:17:51;46.80;;;18.83;;
28170;SDS011;15458;53.346;-1.688;2022-12-18T05:20:17;50.08;;;19.00;;
28170;SDS011;15458;53.346;-1.688;2022-12-18T05:22:43;43.75;;;18.92;;
28170;SDS011;15458;53.346;-1.688;2022-12-18T05:25:09;45.65;;;19.10;;
28170;SDS011;15458;53.346;-1.688;2022-12-18T05:27:34;54.50;;;19.63;;
28170;SDS011;15458;53.346;-1.688;2022-12-18T05:30:00;50.95;;;19.73;;
28170;SDS011;15458;53.346;-1.688;2022-12-18T05:32:26;50.75;;;19.05;;
28170;SDS011;15458;53.346;-1.688;2022-12-18T05:34:51;48.33;;;20.48;;
28170;SDS011;15458;53.346;-1.688;2022-12-18T05:37:17;50.38;;;20.08;;
28170;SDS011;15458;53.346;-1.688;2022-12-18T05:39:43;52.25;;;19.83;;
28170;SDS011;15458;53.346;-1.688;2022-12-18T05:42:09;54.22;;;21.77;;
28170;SDS011;15458;53.346;-1.688;2022-12-18T05:44:36;61.60;;;20.50;;
28170;SDS011;15458;53.346;-1.688;2022-12-18T05:47:02;56.40;;;20.67;;
28170;SDS011;15458;53.346;-1.688;2022-12-18T05:49:29;51.28;;;20.95;;
28170;SDS011;15458;53.346;-1.688;2022-12-18T05:51:54;58.25;;;21.27;;
28170;SDS011;15458;53.346;-1.688;2022-12-18T05:54:21;58.92;;;21.38;;
28170;SDS011;15458;53.346;-1.688;2022-12-18T05:56:47;56.55;;;21.02;;
28170;SDS011;15458;53.346;-1.688;2022-12-18T05:59:14;50.00;;;19.95;;
28170;SDS011;15458;53.346;-1.688;2022-12-18T06:01:42;67.18;;;22.35;;
28170;SDS011;15458;53.346;-1.688;2022-12-18T06:04:08;59.42;;;21.23;;
28170;SDS011;15458;53.346;-1.688;2022-12-18T06:06:33;52.67;;;21.05;;
28170;SDS011;15458;53.346;-1.688;2022-12-18T06:08:59;50.45;;;20.15;;
28170;SDS011;15458;53.346;-1.688;2022-12-18T06:11:26;62.70;;;21.15;;
28170;SDS011;15458;53.346;-1.688;2022-12-18T06:13:52;62.70;;;22.10;;
28170;SDS011;15458;53.346;-1.688;2022-12-18T06:16:19;54.72;;;20.77;;
28170;SDS011;15458;53.346;-1.688;2022-12-18T06:18:45;55.85;;;20.23;;
28170;SDS011;15458;53.346;-1.688;2022-12-18T06:21:11;59.00;;;20.95;;
28170;SDS011;15458;53.346;-1.688;2022-12-18T06:23:37;62.30;;;22.67;;
28170;SDS011;15458;53.346;-1.688;2022-12-18T06:26:04;56.90;;;20.52;;
28170;SDS011;15458;53.346;-1.688;2022-12-18T06:28:34;47.50;;;19.33;;
28170;SDS011;15458;53.346;-1.688;2022-12-18T06:31:00;59.38;;;21.05;;
28170;SDS011;15458;53.346;-1.688;2022-12-18T06:33:27;49.70;;;19.55;;
28170;SDS011;15458;53.346;-1.688;2022-12-18T06:35:53;53.50;;;21.77;;
28170;SDS011;15458;53.346;-1.688;2022-12-18T06:38:28;62.22;;;21.17;;
28170;SDS011;15458;53.346;-1.688;2022-12-18T06:40:54;52.92;;;19.85;;
28170;SDS011;15458;53.346;-1.688;2022-12-18T06:43:21;64.13;;;22.80;;
28170;SDS011;15458;53.346;-1.688;2022-12-18T06:45:47;57.80;;;20.58;;
28170;SDS011;15458;53.346;-1.688;2022-12-18T06:48:34;54.88;;;22.30;;
28170;SDS011;15458;53.346;-1.688;2022-12-18T06:51:02;47.83;;;18.48;;
28170;SDS011;15458;53.346;-1.688;2022-12-18T06:53:41;54.25;;;20.90;;
28170;SDS011;15458;53.346;-1.688;2022-12-18T06:56:08;57.70;;;21.13;;
28170;SDS011;15458;53.346;-1.688;2022-12-18T06:58:34;54.90;;;19.65;;
28170;SDS011;15458;53.346;-1.688;2022-12-18T07:01:04;58.72;;;21.38;;
28170;SDS011;15458;53.346;-1.688;2022-12-18T07:03:31;58.30;;;21.05;;
28170;SDS011;15458;53.346;-1.688;2022-12-18T07:05:59;59.10;;;21.05;;
28170;SDS011;15458;53.346;-1.688;2022-12-18T07:08:26;57.33;;;21.83;;
28170;SDS011;15458;53.346;-1.688;2022-12-18T07:10:53;56.42;;;21.45;;
28170;SDS011;15458;53.346;-1.688;2022-12-18T07:13:19;57.97;;;21.35;;
28170;SDS011;15458;53.346;-1.688;2022-12-18T07:15:47;65.55;;;23.02;;
28170;SDS011;15458;53.346;-1.688;2022-12-18T07:18:13;62.75;;;22.20;;
28170;SDS011;15458;53.346;-1.688;2022-12-18T07:20:39;64.25;;;24.92;;
28170;SDS011;15458;53.346;-1.688;2022-12-18T07:23:05;65.18;;;25.20;;
28170;SDS011;15458;53.346;-1.688;2022-12-18T07:25:34;66.85;;;24.27;;
28170;SDS011;15458;53.346;-1.688;2022-12-18T07:28:03;61.20;;;23.80;;
28170;SDS011;15458;53.346;-1.688;2022-12-18T07:30:32;67.97;;;24.40;;
28170;SDS011;15458;53.346;-1.688;2022-12-18T07:32:58;61.03;;;24.02;;
28170;SDS011;15458;53.346;-1.688;2022-12-18T07:35:23;66.78;;;23.23;;
28170;SDS011;15458;53.346;-1.688;2022-12-18T07:37:49;68.80;;;26.17;;
28170;SDS011;15458;53.346;-1.688;2022-12-18T07:40:15;64.30;;;25.30;;
28170;SDS011;15458;53.346;-1.688;2022-12-18T07:42:40;67.05;;;25.58;;
28170;SDS011;15458;53.346;-1.688;2022-12-18T07:45:06;71.38;;;24.83;;
28170;SDS011;15458;53.346;-1.688;2022-12-18T07:47:35;68.70;;;25.20;;
28170;SDS011;15458;53.346;-1.688;2022-12-18T07:50:03;75.45;;;26.23;;
28170;SDS011;15458;53.346;-1.688;2022-12-18T07:52:29;71.03;;;24.50;;
28170;SDS011;15458;53.346;-1.688;2022-12-18T07:54:55;74.20;;;26.48;;
28170;SDS011;15458;53.346;-1.688;2022-12-18T07:57:23;68.88;;;24.90;;
28170;SDS011;15458;53.346;-1.688;2022-12-18T07:59:49;67.07;;;23.88;;
28170;SDS011;15458;53.346;-1.688;2022-12-18T08:02:15;69.45;;;23.75;;
28170;SDS011;15458;53.346;-1.688;2022-12-18T08:04:40;70.15;;;25.52;;
28170;SDS011;15458;53.346;-1.688;2022-12-18T08:07:06;67.22;;;24.20;;
28170;SDS011;15458;53.346;-1.688;2022-12-18T08:09:32;70.70;;;24.33;;
28170;SDS011;15458;53.346;-1.688;2022-12-18T08:11:57;68.53;;;24.27;;
28170;SDS011;15458;53.346;-1.688;2022-12-18T08:14:23;66.47;;;25.90;;
28170;SDS011;15458;53.346;-1.688;2022-12-18T08:16:49;70.13;;;24.10;;
28170;SDS011;15458;53.346;-1.688;2022-12-18T08:19:15;71.88;;;25.40;;
28170;SDS011;15458;53.346;-1.688;2022-12-18T08:21:40;66.47;;;24.08;;
28170;SDS011;15458;53.346;-1.688;2022-12-18T08:24:06;68.70;;;25.60;;
28170;SDS011;15458;53.346;-1.688;2022-12-18T08:26:34;64.45;;;23.60;;
28170;SDS011;15458;53.346;-1.688;2022-12-18T08:28:59;67.90;;;23.63;;
28170;SDS011;15458;53.346;-1.688;2022-12-18T08:31:26;62.13;;;21.98;;
28170;SDS011;15458;53.346;-1.688;2022-12-18T08:33:55;64.13;;;23.50;;
28170;SDS011;15458;53.346;-1.688;2022-12-18T08:36:22;68.45;;;22.88;;
28170;SDS011;15458;53.346;-1.688;2022-12-18T08:38:48;66.82;;;23.00;;
28170;SDS011;15458;53.346;-1.688;2022-12-18T08:41:16;61.22;;;22.85;;
28170;SDS011;15458;53.346;-1.688;2022-12-18T08:43:42;66.65;;;21.23;;
28170;SDS011;15458;53.346;-1.688;2022-12-18T08:46:27;62.45;;;22.45;;
28170;SDS011;15458;53.346;-1.688;2022-12-18T08:49:06;64.18;;;21.40;;
28170;SDS011;15458;53.346;-1.688;2022-12-18T08:51:33;73.15;;;23.83;;
28170;SDS011;15458;53.346;-1.688;2022-12-18T08:53:59;65.43;;;23.98;;
28170;SDS011;15458;53.346;-1.688;2022-12-18T08:56:27;69.88;;;24.02;;
28170;SDS011;15458;53.346;-1.688;2022-12-18T08:58:53;66.80;;;23.77;;
28170;SDS011;15458;53.346;-1.688;2022-12-18T09:01:20;66.40;;;23.55;;
28170;SDS011;15458;53.346;-1.688;2022-12-18T09:03:48;70.47;;;25.25;;
28170;SDS011;15458;53.346;-1.688;2022-12-18T09:06:14;63.38;;;23.67;;
28170;SDS011;15458;53.346;-1.688;2022-12-18T09:08:42;67.82;;;24.25;;
28170;SDS011;15458;53.346;-1.688;2022-12-18T09:11:13;65.90;;;23.23;;
28170;SDS011;15458;53.346;-1.688;2022-12-18T09:13:40;69.28;;;24.38;;
28170;SDS011;15458;53.346;-1.688;2022-12-18T09:16:06;65.63;;;24.50;;
28170;SDS011;15458;53.346;-1.688;2022-12-18T09:18:31;75.65;;;24.55;;
28170;SDS011;15458;53.346;-1.688;2022-12-18T09:20:57;66.07;;;23.55;;
28170;SDS011;15458;53.346;-1.688;2022-12-18T09:23:23;69.28;;;26.08;;
28170;SDS011;15458;53.346;-1.688;2022-12-18T09:25:50;71.38;;;23.45;;
28170;SDS011;15458;53.346;-1.688;2022-12-18T09:28:33;67.05;;;23.27;;
28170;SDS011;15458;53.346;-1.688;2022-12-18T09:31:05;61.13;;;22.65;;
28170;SDS011;15458;53.346;-1.688;2022-12-18T09:33:32;63.28;;;20.77;;
28170;SDS011;15458;53.346;-1.688;2022-12-18T09:36:00;56.90;;;21.52;;
28170;SDS011;15458;53.346;-1.688;2022-12-18T09:38:27;64.28;;;21.85;;
28170;SDS011;15458;53.346;-1.688;2022-12-18T09:41:06;59.97;;;21.10;;
28170;SDS011;15458;53.346;-1.688;2022-12-18T09:43:50;64.82;;;21.27;;
28170;SDS011;15458;53.346;-1.688;2022-12-18T09:46:26;60.55;;;19.23;;
28170;SDS011;15458;53.346;-1.688;2022-12-18T09:48:56;60.72;;;22.38;;
28170;SDS011;15458;53.346;-1.688;2022-12-18T09:51:30;62.20;;;19.95;;
28170;SDS011;15458;53.346;-1.688;2022-12-18T09:54:11;57.47;;;19.88;;
28170;SDS011;15458;53.346;-1.688;2022-12-18T09:56:53;60.05;;;20.80;;
28170;SDS011;15458;53.346;-1.688;2022-12-18T09:59:21;61.08;;;20.88;;
28170;SDS011;15458;53.346;-1.688;2022-12-18T10:01:48;61.75;;;21.00;;
28170;SDS011;15458;53.346;-1.688;2022-12-18T10:04:13;63.90;;;20.20;;
28170;SDS011;15458;53.346;-1.688;2022-12-18T10:06:42;55.92;;;18.83;;
28170;SDS011;15458;53.346;-1.688;2022-12-18T10:09:20;55.60;;;18.45;;
28170;SDS011;15458;53.346;-1.688;2022-12-18T10:14:43;59.00;;;19.60;;
28170;SDS011;15458;53.346;-1.688;2022-12-18T10:20:02;49.58;;;17.40;;
28170;SDS011;15458;53.346;-1.688;2022-12-18T10:25:28;57.97;;;19.27;;
28170;SDS011;15458;53.346;-1.688;2022-12-18T10:28:15;58.60;;;20.65;;
28170;SDS011;15458;53.346;-1.688;2022-12-18T10:30:44;49.97;;;17.33;;
28170;SDS011;15458;53.346;-1.688;2022-12-18T10:33:19;47.70;;;17.05;;
28170;SDS011;15458;53.346;-1.688;2022-12-18T10:35:48;52.53;;;18.60;;
28170;SDS011;15458;53.346;-1.688;2022-12-18T10:44:22;53.80;;;16.75;;
28170;SDS011;15458;53.346;-1.688;2022-12-18T10:46:54;52.92;;;17.25;;
28170;SDS011;15458;53.346;-1.688;2022-12-18T10:49:29;50.08;;;18.27;;
28170;SDS011;15458;53.346;-1.688;2022-12-18T10:52:04;49.20;;;17.58;;
28170;SDS011;15458;53.346;-1.688;2022-12-18T10:54:30;49.35;;;17.83;;
28170;SDS011;15458;53.346;-1.688;2022-12-18T10:57:14;51.28;;;17.88;;
28170;SDS011;15458;53.346;-1.688;2022-12-18T10:59:55;48.42;;;16.30;;
28170;SDS011;15458;53.346;-1.688;2022-12-18T11:02:36;49.03;;;17.45;;
28170;SDS011;15458;53.346;-1.688;2022-12-18T11:05:03;51.30;;;18.53;;
28170;SDS011;15458;53.346;-1.688;2022-12-18T11:07:48;47.65;;;17.13;;
28170;SDS011;15458;53.346;-1.688;2022-12-18T11:10:16;47.85;;;17.65;;
28170;SDS011;15458;53.346;-1.688;2022-12-18T11:12:43;48.30;;;17.40;;
28170;SDS011;15458;53.346;-1.688;2022-12-18T11:15:16;42.90;;;16.45;;
28170;SDS011;15458;53.346;-1.688;2022-12-18T11:17:54;54.47;;;18.10;;
28170;SDS011;15458;53.346;-1.688;2022-12-18T11:22:58;49.88;;;17.73;;
28170;SDS011;15458;53.346;-1.688;2022-12-18T11:25:31;50.45;;;17.23;;
28170;SDS011;15458;53.346;-1.688;2022-12-18T11:28:06;50.60;;;16.50;;
28170;SDS011;15458;53.346;-1.688;2022-12-18T11:31:27;40.08;;;16.23;;
28170;SDS011;15458;53.346;-1.688;2022-12-18T11:36:25;46.17;;;16.48;;
28170;SDS011;15458;53.346;-1.688;2022-12-18T11:38:56;43.45;;;15.95;;
28170;SDS011;15458;53.346;-1.688;2022-12-18T11:41:34;50.28;;;18.05;;
28170;SDS011;15458;53.346;-1.688;2022-12-18T11:44:35;44.47;;;16.50;;
28170;SDS011;15458;53.346;-1.688;2022-12-18T11:47:21;45.38;;;17.50;;
28170;SDS011;15458;53.346;-1.688;2022-12-18T11:50:00;52.83;;;18.38;;
28170;SDS011;15458;53.346;-1.688;2022-12-18T11:52:37;47.33;;;16.67;;
28170;SDS011;15458;53.346;-1.688;2022-12-18T11:58:12;49.13;;;18.30;;
28170;SDS011;15458;53.346;-1.688;2022-12-18T12:01:15;51.15;;;18.95;;
28170;SDS011;15458;53.346;-1.688;2022-12-18T12:15:20;43.58;;;17.80;;
28170;SDS011;15458;53.346;-1.688;2022-12-18T12:18:07;49.05;;;17.75;;
28170;SDS011;15458;53.346;-1.688;2022-12-18T12:24:04;49.58;;;17.58;;
28170;SDS011;15458;53.346;-1.688;2022-12-18T12:32:35;50.08;;;18.13;;
28170;SDS011;15458;53.346;-1.688;2022-12-18T12:40:54;44.83;;;17.20;;
28170;SDS011;15458;53.346;-1.688;2022-12-18T12:43:58;48.42;;;18.60;;
28170;SDS011;15458;53.346;-1.688;2022-12-18T12:46:18;46.28;;;18.77;;
28170;SDS011;15458;53.346;-1.688;2022-12-18T12:54:12;40.67;;;15.63;;
28170;SDS011;15458;53.346;-1.688;2022-12-18T12:56:46;44.83;;;18.05;;
28170;SDS011;15458;53.346;-1.688;2022-12-18T13:00:36;45.30;;;18.90;;
28170;SDS011;15458;53.346;-1.688;2022-12-18T13:05:40;42.08;;;15.43;;
28170;SDS011;15458;53.346;-1.688;2022-12-18T13:08:22;53.67;;;19.45;;
28170;SDS011;15458;53.346;-1.688;2022-12-18T13:10:50;46.95;;;18.02;;
28170;SDS011;15458;53.346;-1.688;2022-12-18T13:13:50;43.53;;;17.48;;
28170;SDS011;15458;53.346;-1.688;2022-12-18T13:16:21;45.85;;;17.90;;
28170;SDS011;15458;53.346;-1.688;2022-12-18T13:18:52;43.28;;;16.73;;
28170;SDS011;15458;53.346;-1.688;2022-12-18T13:23:52;45.83;;;17.63;;
28170;SDS011;15458;53.346;-1.688;2022-12-18T13:34:22;43.97;;;17.17;;
28170;SDS011;15458;53.346;-1.688;2022-12-18T13:36:50;46.22;;;17.67;;
28170;SDS011;15458;53.346;-1.688;2022-12-18T13:41:43;47.88;;;17.60;;
28170;SDS011;15458;53.346;-1.688;2022-12-18T13:44:12;50.05;;;17.55;;
28170;SDS011;15458;53.346;-1.688;2022-12-18T13:46:49;52.28;;;20.52;;
28170;SDS011;15458;53.346;-1.688;2022-12-18T13:49:36;49.80;;;18.58;;
28170;SDS011;15458;53.346;-1.688;2022-12-18T13:52:18;46.97;;;18.27;;
28170;SDS011;15458;53.346;-1.688;2022-12-18T13:54:51;53.53;;;19.23;;
28170;SDS011;15458;53.346;-1.688;2022-12-18T13:59:53;53.25;;;19.30;;
28170;SDS011;15458;53.346;-1.688;2022-12-18T14:02:25;46.80;;;17.23;;
28170;SDS011;15458;53.346;-1.688;2022-12-18T14:04:59;45.10;;;17.92;;
28170;SDS011;15458;53.346;-1.688;2022-12-18T14:07:25;45.65;;;17.08;;
28170;SDS011;15458;53.346;-1.688;2022-12-18T14:09:53;47.42;;;17.17;;
28170;SDS011;15458;53.346;-1.688;2022-12-18T14:15:31;50.03;;;17.42;;
28170;SDS011;15458;53.346;-1.688;2022-12-18T14:17:59;42.85;;;17.40;;
28170;SDS011;15458;53.346;-1.688;2022-12-18T14:20:28;43.50;;;15.48;;
28170;SDS011;15458;53.346;-1.688;2022-12-18T14:22:57;47.45;;;16.27;;
28170;SDS011;15458;53.346;-1.688;2022-12-18T14:25:24;43.05;;;16.55;;
28170;SDS011;15458;53.346;-1.688;2022-12-18T14:30:36;40.42;;;13.25;;
28170;SDS011;15458;53.346;-1.688;2022-12-18T14:33:12;45.42;;;16.98;;
28170;SDS011;15458;53.346;-1.688;2022-12-18T14:36:04;50.70;;;18.50;;
28170;SDS011;15458;53.346;-1.688;2022-12-18T14:38:32;39.60;;;15.60;;
28170;SDS011;15458;53.346;-1.688;2022-12-18T14:43:29;51.22;;;17.40;;
28170;SDS011;15458;53.346;-1.688;2022-12-18T14:45:59;43.03;;;17.13;;
28170;SDS011;15458;53.346;-1.688;2022-12-18T14:48:37;53.92;;;18.05;;
28170;SDS011;15458;53.346;-1.688;2022-12-18T14:53:48;38.97;;;16.20;;
28170;SDS011;15458;53.346;-1.688;2022-12-18T14:56:29;41.17;;;17.33;;
28170;SDS011;15458;53.346;-1.688;2022-12-18T14:59:01;45.38;;;16.67;;
28170;SDS011;15458;53.346;-1.688;2022-12-18T15:01:29;46.33;;;17.90;;
28170;SDS011;15458;53.346;-1.688;2022-12-18T15:04:01;42.35;;;16.00;;
28170;SDS011;15458;53.346;-1.688;2022-12-18T15:06:36;45.10;;;17.33;;
28170;SDS011;15458;53.346;-1.688;2022-12-18T15:09:05;43.47;;;16.73;;
28170;SDS011;15458;53.346;-1.688;2022-12-18T15:11:46;45.20;;;18.63;;
28170;SDS011;15458;53.346;-1.688;2022-12-18T15:14:32;44.28;;;17.67;;
28170;SDS011;15458;53.346;-1.688;2022-12-18T15:17:00;44.05;;;19.05;;
28170;SDS011;15458;53.346;-1.688;2022-12-18T15:19:33;36.65;;;16.50;;
28170;SDS011;15458;53.346;-1.688;2022-12-18T15:22:03;41.28;;;16.60;;
28170;SDS011;15458;53.346;-1.688;2022-12-18T15:24:30;34.05;;;13.10;;
28170;SDS011;15458;53.346;-1.688;2022-12-18T15:26:57;36.15;;;15.20;;
28170;SDS011;15458;53.346;-1.688;2022-12-18T15:29:24;32.25;;;14.35;;
28170;SDS011;15458;53.346;-1.688;2022-12-18T15:34:31;29.77;;;13.73;;
28170;SDS011;15458;53.346;-1.688;2022-12-18T15:36:59;31.92;;;14.35;;
28170;SDS011;15458;53.346;-1.688;2022-12-18T15:39:29;27.75;;;12.80;;
28170;SDS011;15458;53.346;-1.688;2022-12-18T15:41:55;28.98;;;12.50;;
28170;SDS011;15458;53.346;-1.688;2022-12-18T15:44:51;23.00;;;11.32;;
28170;SDS011;15458;53.346;-1.688;2022-12-18T15:47:17;24.45;;;11.48;;
28170;SDS011;15458;53.346;-1.688;2022-12-18T15:49:53;20.45;;;10.63;;
28170;SDS011;15458;53.346;-1.688;2022-12-18T15:52:20;25.48;;;12.35;;
28170;SDS011;15458;53.346;-1.688;2022-12-18T15:54:50;21.75;;;12.00;;
28170;SDS011;15458;53.346;-1.688;2022-12-18T15:57:35;19.83;;;11.00;;
28170;SDS011;15458;53.346;-1.688;2022-12-18T16:00:01;22.15;;;10.82;;
28170;SDS011;15458;53.346;-1.688;2022-12-18T16:02:28;25.13;;;12.00;;
28170;SDS011;15458;53.346;-1.688;2022-12-18T16:04:54;27.33;;;12.55;;
28170;SDS011;15458;53.346;-1.688;2022-12-18T16:07:23;27.35;;;12.27;;
28170;SDS011;15458;53.346;-1.688;2022-12-18T16:09:51;19.95;;;10.05;;
28170;SDS011;15458;53.346;-1.688;2022-12-18T16:12:21;25.58;;;12.48;;
28170;SDS011;15458;53.346;-1.688;2022-12-18T16:14:50;30.70;;;13.15;;
28170;SDS011;15458;53.346;-1.688;2022-12-18T16:17:16;28.67;;;12.93;;
28170;SDS011;15458;53.346;-1.688;2022-12-18T16:19:42;26.45;;;12.68;;
28170;SDS011;15458;53.346;-1.688;2022-12-18T16:22:20;23.77;;;11.38;;
28170;SDS011;15458;53.346;-1.688;2022-12-18T16:24:49;23.38;;;11.20;;